createdAt,value
2016-11-23T00:00:57.533Z,0
2016-11-23T00:02:06.425Z,0
2016-11-23T00:03:15.321Z,0
2016-11-23T00:04:24.531Z,0
2016-11-23T00:05:33.418Z,0
2016-11-23T00:06:42.297Z,0
2016-11-23T00:07:51.506Z,0
2016-11-23T00:09:00.088Z,0
2016-11-23T00:10:08.981Z,0
2016-11-23T00:11:17.880Z,0
2016-11-23T00:12:27.130Z,0
2016-11-23T00:13:36.022Z,0
2016-11-23T00:14:44.596Z,0
2016-11-23T00:15:53.489Z,0
2016-11-23T00:17:02.096Z,0
2016-11-23T00:18:10.974Z,0
2016-11-23T00:19:19.894Z,0
2016-11-23T00:20:28.784Z,0
2016-11-23T00:21:37.360Z,0
2016-11-23T00:22:45.944Z,0
2016-11-23T00:23:55.185Z,0
2016-11-23T00:25:03.757Z,0
2016-11-23T00:26:12.651Z,0
2016-11-23T00:27:21.228Z,0
2016-11-23T00:28:30.124Z,0
2016-11-23T00:29:39.117Z,0
2016-11-23T00:30:47.694Z,0
2016-11-23T00:31:56.298Z,0
2016-11-23T00:33:05.190Z,0
2016-11-23T00:34:13.763Z,0
2016-11-23T00:35:22.713Z,0
2016-11-23T00:36:31.288Z,0
2016-11-23T00:37:40.180Z,0
2016-11-23T00:38:49.070Z,0
2016-11-23T00:39:57.644Z,0
2016-11-23T00:41:06.272Z,0
2016-11-23T00:42:15.173Z,0
2016-11-23T00:43:23.749Z,0
2016-11-23T00:44:32.321Z,0
2016-11-23T00:45:40.899Z,0
2016-11-23T00:46:49.927Z,0
2016-11-23T00:47:58.823Z,0
2016-11-23T00:49:07.394Z,0
2016-11-23T00:50:16.285Z,0
2016-11-23T00:51:25.182Z,0
2016-11-23T00:52:34.747Z,0
2016-11-23T00:53:43.638Z,0
2016-11-23T00:54:52.528Z,0
2016-11-23T00:56:01.419Z,0
2016-11-23T00:57:10.312Z,0
2016-11-23T00:58:19.254Z,0
2016-11-23T00:59:28.474Z,0
2016-11-23T01:00:37.050Z,0
2016-11-23T01:01:45.941Z,0
2016-11-23T01:02:54.531Z,0
2016-11-23T01:04:03.153Z,0
2016-11-23T01:05:11.728Z,0
2016-11-23T01:06:20.937Z,0
2016-11-23T01:07:29.833Z,0
2016-11-23T01:08:38.410Z,0
2016-11-23T01:09:47.334Z,0
2016-11-23T01:10:55.909Z,0
2016-11-23T01:12:05.124Z,0
2016-11-23T01:13:14.653Z,0
2016-11-23T01:14:23.545Z,0
2016-11-23T01:15:32.570Z,0
2016-11-23T01:16:41.467Z,0
2016-11-23T01:17:50.044Z,0
2016-11-23T01:18:59.575Z,0
2016-11-23T01:20:08.473Z,0
2016-11-23T01:21:18.131Z,0
2016-11-23T01:22:27.020Z,0
2016-11-23T01:23:35.595Z,0
2016-11-23T01:24:44.497Z,0
2016-11-23T01:25:53.387Z,0
2016-11-23T01:27:02.261Z,0
2016-11-23T01:28:11.165Z,0
2016-11-23T01:29:20.062Z,0
2016-11-23T01:30:28.960Z,0
2016-11-23T01:31:37.547Z,0
2016-11-23T01:32:46.792Z,0
2016-11-23T01:33:55.715Z,0
2016-11-23T01:35:04.929Z,0
2016-11-23T01:36:13.504Z,0
2016-11-23T01:37:22.403Z,0
2016-11-23T01:38:31.598Z,0
2016-11-23T01:39:40.499Z,0
2016-11-23T01:40:49.395Z,0
2016-11-23T01:41:57.967Z,0
2016-11-23T01:43:06.538Z,0
2016-11-23T01:44:15.787Z,0
2016-11-23T01:45:24.362Z,0
2016-11-23T01:46:32.937Z,0
2016-11-23T01:47:41.511Z,0
2016-11-23T01:48:50.401Z,0
2016-11-23T01:49:59.643Z,0
2016-11-23T01:51:08.854Z,0
2016-11-23T01:52:17.433Z,0
2016-11-23T01:53:26.643Z,0
2016-11-23T01:54:35.866Z,0
2016-11-23T01:55:44.796Z,0
2016-11-23T01:56:53.371Z,0
2016-11-23T01:58:01.945Z,0
2016-11-23T01:59:11.161Z,0
2016-11-23T02:00:20.377Z,0
2016-11-23T02:01:29.000Z,0
2016-11-23T02:02:37.576Z,0
2016-11-23T02:03:46.791Z,0
2016-11-23T02:04:55.366Z,0
2016-11-23T02:06:03.973Z,0
2016-11-23T02:07:13.322Z,0
2016-11-23T02:08:22.533Z,0
2016-11-23T02:09:31.426Z,0
2016-11-23T02:10:40.639Z,0
2016-11-23T02:11:49.846Z,0
2016-11-23T02:12:58.468Z,0
2016-11-23T02:14:07.043Z,0
2016-11-23T02:15:15.626Z,0
2016-11-23T02:16:24.201Z,0
2016-11-23T02:17:32.780Z,0
2016-11-23T02:18:41.439Z,0
2016-11-23T02:19:50.015Z,0
2016-11-23T02:20:58.911Z,0
2016-11-23T02:22:07.805Z,0
2016-11-23T02:23:16.411Z,0
2016-11-23T02:24:25.703Z,0
2016-11-23T02:25:34.597Z,0
2016-11-23T02:26:43.174Z,0
2016-11-23T02:27:52.067Z,0
2016-11-23T02:29:00.958Z,0
2016-11-23T02:30:10.255Z,0
2016-11-23T02:31:18.830Z,0
2016-11-23T02:32:27.407Z,0
2016-11-23T02:33:36.302Z,0
2016-11-23T02:34:45.514Z,0
2016-11-23T02:35:54.488Z,0
2016-11-23T02:37:03.067Z,0
2016-11-23T02:38:11.967Z,0
2016-11-23T02:39:20.876Z,0
2016-11-23T02:40:29.767Z,0
2016-11-23T02:41:38.646Z,0
2016-11-23T02:42:47.536Z,0
2016-11-23T02:43:56.746Z,0
2016-11-23T02:45:05.643Z,0
2016-11-23T02:46:14.219Z,0
2016-11-23T02:47:23.209Z,0
2016-11-23T02:48:31.783Z,0
2016-11-23T02:49:40.362Z,0
2016-11-23T02:50:49.570Z,0
2016-11-23T02:51:58.146Z,0
2016-11-23T02:53:07.444Z,0
2016-11-23T02:54:16.340Z,0
2016-11-23T02:55:24.914Z,0
2016-11-23T02:56:33.804Z,0
2016-11-23T02:57:42.382Z,0
2016-11-23T02:58:51.307Z,0
2016-11-23T02:59:59.880Z,0
2016-11-23T03:01:08.789Z,0
2016-11-23T03:02:17.358Z,0
2016-11-23T03:03:26.248Z,0
2016-11-23T03:04:35.127Z,0
2016-11-23T03:05:44.024Z,0
2016-11-23T03:06:53.234Z,0
2016-11-23T03:08:02.138Z,0
2016-11-23T03:09:11.348Z,0
2016-11-23T03:10:20.589Z,0
2016-11-23T03:11:29.478Z,0
2016-11-23T03:12:38.050Z,0
2016-11-23T03:13:46.622Z,0
2016-11-23T03:14:55.198Z,0
2016-11-23T03:16:03.828Z,0
2016-11-23T03:17:12.723Z,0
2016-11-23T03:18:21.296Z,0
2016-11-23T03:19:29.866Z,0
2016-11-23T03:20:38.438Z,0
2016-11-23T03:21:47.699Z,0
2016-11-23T03:22:56.303Z,0
2016-11-23T03:24:04.884Z,0
2016-11-23T03:25:13.455Z,0
2016-11-23T03:26:22.347Z,0
2016-11-23T03:27:31.267Z,0
2016-11-23T03:28:40.479Z,0
2016-11-23T03:29:49.051Z,0
2016-11-23T03:30:57.943Z,0
2016-11-23T03:32:06.832Z,0
2016-11-23T03:33:15.749Z,0
2016-11-23T03:34:24.670Z,0
2016-11-23T03:35:33.881Z,0
2016-11-23T03:36:42.780Z,0
2016-11-23T03:37:51.990Z,0
2016-11-23T03:39:00.931Z,0
2016-11-23T03:40:09.510Z,0
2016-11-23T03:41:18.082Z,0
2016-11-23T03:42:26.970Z,0
2016-11-23T03:43:35.546Z,0
2016-11-23T03:44:44.467Z,0
2016-11-23T03:45:53.362Z,0
2016-11-23T03:47:02.572Z,0
2016-11-23T03:48:11.145Z,0
2016-11-23T03:49:20.032Z,0
2016-11-23T03:50:29.225Z,0
2016-11-23T03:51:38.123Z,0
2016-11-23T03:52:47.043Z,0
2016-11-23T03:53:55.615Z,0
2016-11-23T03:55:04.187Z,0
2016-11-23T03:56:13.132Z,0
2016-11-23T03:57:22.660Z,0
2016-11-23T03:58:31.238Z,0
2016-11-23T03:59:39.814Z,0
2016-11-23T04:00:49.026Z,0
2016-11-23T04:01:58.686Z,0
2016-11-23T04:03:07.577Z,0
2016-11-23T04:04:16.473Z,0
2016-11-23T04:05:25.047Z,0
2016-11-23T04:06:34.259Z,0
2016-11-23T04:07:43.564Z,0
2016-11-23T04:08:52.457Z,0
2016-11-23T04:10:01.038Z,0
2016-11-23T04:11:09.607Z,0
2016-11-23T04:12:18.498Z,0
2016-11-23T04:13:27.420Z,0
2016-11-23T04:14:35.995Z,0
2016-11-23T04:15:44.920Z,0
2016-11-23T04:16:53.811Z,0
2016-11-23T04:18:02.701Z,0
2016-11-23T04:19:11.644Z,0
2016-11-23T04:20:20.544Z,0
2016-11-23T04:21:29.435Z,0
2016-11-23T04:22:38.329Z,0
2016-11-23T04:23:47.219Z,0
2016-11-23T04:24:56.158Z,0
2016-11-23T04:26:05.054Z,0
2016-11-23T04:27:13.629Z,0
2016-11-23T04:28:22.225Z,0
2016-11-23T04:29:31.134Z,0
2016-11-23T04:30:40.448Z,0
2016-11-23T04:31:49.023Z,0
2016-11-23T04:32:57.622Z,0
2016-11-23T04:34:06.201Z,0
2016-11-23T04:35:15.093Z,0
2016-11-23T04:36:24.388Z,0
2016-11-23T04:37:32.960Z,0
2016-11-23T04:38:41.530Z,0
2016-11-23T04:39:50.421Z,0
2016-11-23T04:40:58.997Z,0
2016-11-23T04:42:08.271Z,0
2016-11-23T04:43:16.845Z,0
2016-11-23T04:44:25.731Z,0
2016-11-23T04:45:34.621Z,0
2016-11-23T04:46:43.196Z,0
2016-11-23T04:47:52.388Z,0
2016-11-23T04:49:01.277Z,0
2016-11-23T04:50:09.854Z,0
2016-11-23T04:51:18.431Z,0
2016-11-23T04:52:27.005Z,0
2016-11-23T04:53:35.954Z,0
2016-11-23T04:54:44.850Z,0
2016-11-23T04:55:54.059Z,0
2016-11-23T04:57:02.951Z,0
2016-11-23T04:58:11.843Z,0
2016-11-23T04:59:21.086Z,0
2016-11-23T05:00:29.982Z,0
2016-11-23T05:01:39.195Z,0
2016-11-23T05:02:48.098Z,0
2016-11-23T05:03:57.336Z,0
2016-11-23T05:05:06.209Z,0
2016-11-23T05:06:15.103Z,0
2016-11-23T05:07:23.698Z,0
2016-11-23T05:08:32.589Z,0
2016-11-23T05:09:41.161Z,0
2016-11-23T05:10:50.475Z,0
2016-11-23T05:11:59.368Z,0
2016-11-23T05:13:08.575Z,0
2016-11-23T05:14:17.474Z,0
2016-11-23T05:15:26.362Z,0
2016-11-23T05:16:35.284Z,0
2016-11-23T05:17:43.856Z,0
2016-11-23T05:18:52.766Z,0
2016-11-23T05:20:01.658Z,0
2016-11-23T05:21:10.547Z,0
2016-11-23T05:22:19.484Z,0
2016-11-23T05:23:28.373Z,0
2016-11-23T05:24:37.263Z,0
2016-11-23T05:25:45.840Z,0
2016-11-23T05:26:54.729Z,0
2016-11-23T05:28:03.703Z,0
2016-11-23T05:29:12.921Z,0
2016-11-23T05:30:21.491Z,0
2016-11-23T05:31:30.391Z,0
2016-11-23T05:32:39.602Z,0
2016-11-23T05:33:48.541Z,0
2016-11-23T05:34:57.758Z,0
2016-11-23T05:36:06.329Z,0
2016-11-23T05:37:15.537Z,0
2016-11-23T05:38:24.106Z,0
2016-11-23T05:39:33.667Z,0
2016-11-23T05:40:42.246Z,0
2016-11-23T05:41:50.820Z,0
2016-11-23T05:42:59.715Z,0
2016-11-23T05:44:08.611Z,0
2016-11-23T05:45:17.283Z,0
2016-11-23T05:46:26.173Z,0
2016-11-23T05:47:35.064Z,0
2016-11-23T05:48:43.639Z,0
2016-11-23T05:49:52.529Z,0
2016-11-23T05:51:01.109Z,0
2016-11-23T05:52:09.681Z,0
2016-11-23T05:53:18.260Z,0
2016-11-23T05:54:26.836Z,0
2016-11-23T05:55:35.737Z,0
2016-11-23T05:56:44.358Z,0
2016-11-23T05:57:52.930Z,0
2016-11-23T05:59:01.503Z,0
2016-11-23T06:00:10.082Z,0
2016-11-23T06:01:18.666Z,0
2016-11-23T06:02:28.281Z,0
2016-11-23T06:03:36.907Z,0
2016-11-23T06:04:45.496Z,0
2016-11-23T06:05:54.397Z,0
2016-11-23T06:07:02.983Z,0
2016-11-23T06:08:12.230Z,0
2016-11-23T06:09:20.800Z,0
2016-11-23T06:10:29.376Z,0
2016-11-23T06:11:38.268Z,0
2016-11-23T06:12:46.844Z,0
2016-11-23T06:13:55.469Z,0
2016-11-23T06:15:04.366Z,0
2016-11-23T06:16:13.572Z,0
2016-11-23T06:17:22.147Z,0
2016-11-23T06:18:31.041Z,0
2016-11-23T06:19:40.016Z,0
2016-11-23T06:20:48.902Z,0
2016-11-23T06:21:57.474Z,0
2016-11-23T06:23:06.368Z,0
2016-11-23T06:24:14.943Z,0
2016-11-23T06:25:23.883Z,0
2016-11-23T06:26:32.798Z,0
2016-11-23T06:27:41.696Z,0
2016-11-23T06:28:50.267Z,0
2016-11-23T06:29:59.157Z,0
2016-11-23T06:31:07.883Z,0
2016-11-23T06:32:16.777Z,0
2016-11-23T06:33:25.985Z,0
2016-11-23T06:34:34.874Z,0
2016-11-23T06:35:43.766Z,0
2016-11-23T06:36:52.743Z,0
2016-11-23T06:38:01.320Z,0
2016-11-23T06:39:10.209Z,0
2016-11-23T06:40:19.095Z,0
2016-11-23T06:41:27.665Z,0
2016-11-23T06:42:36.590Z,0
2016-11-23T06:43:45.482Z,0
2016-11-23T06:44:54.078Z,0
2016-11-23T06:46:02.694Z,0
2016-11-23T06:47:11.586Z,0
2016-11-23T06:48:20.830Z,0
2016-11-23T06:49:29.718Z,0
2016-11-23T06:50:38.289Z,0
2016-11-23T06:51:47.505Z,0
2016-11-23T06:52:56.713Z,0
2016-11-23T06:54:05.632Z,0
2016-11-23T06:55:14.522Z,0
2016-11-23T06:56:23.132Z,5
2016-11-23T06:57:32.341Z,5
2016-11-23T06:58:40.916Z,5
2016-11-23T06:59:49.864Z,5
2016-11-23T07:00:58.754Z,5
2016-11-23T07:02:07.354Z,10
2016-11-23T07:03:15.961Z,10
2016-11-23T07:04:24.538Z,10
2016-11-23T07:05:33.493Z,10
2016-11-23T07:06:42.716Z,10
2016-11-23T07:07:51.288Z,15
2016-11-23T07:08:59.860Z,15
2016-11-23T07:10:08.762Z,15
2016-11-23T07:11:18.097Z,15
2016-11-23T07:12:26.996Z,20
2016-11-23T07:13:35.572Z,20
2016-11-23T07:14:44.141Z,20
2016-11-23T07:15:52.724Z,25
2016-11-23T07:17:01.645Z,25
2016-11-23T07:18:10.548Z,25
2016-11-23T07:19:19.440Z,30
2016-11-23T07:20:28.335Z,30
2016-11-23T07:21:37.225Z,35
2016-11-23T07:22:46.168Z,35
2016-11-23T07:23:55.059Z,40
2016-11-23T07:25:03.950Z,40
2016-11-23T07:26:12.529Z,45
2016-11-23T07:27:21.112Z,45
2016-11-23T07:28:30.084Z,50
2016-11-23T07:29:38.980Z,50
2016-11-23T07:30:47.553Z,55
2016-11-23T07:31:56.131Z,55
2016-11-23T07:33:04.707Z,60
2016-11-23T07:34:13.733Z,60
2016-11-23T07:35:22.619Z,65
2016-11-23T07:36:31.513Z,65
2016-11-23T07:37:40.728Z,70
2016-11-23T07:38:49.622Z,70
2016-11-23T07:39:59.232Z,75
2016-11-23T07:41:07.837Z,75
2016-11-23T07:42:16.411Z,75
2016-11-23T07:43:25.304Z,80
2016-11-23T07:44:34.515Z,85
2016-11-23T07:45:43.135Z,85
2016-11-23T07:46:52.026Z,85
2016-11-23T07:48:00.920Z,90
2016-11-23T07:49:09.490Z,90
2016-11-23T07:50:18.065Z,95
2016-11-23T07:51:26.991Z,95
2016-11-23T07:52:35.558Z,100
2016-11-23T07:53:44.446Z,105
2016-11-23T07:54:53.337Z,105
2016-11-23T07:56:02.568Z,105
2016-11-23T07:57:11.313Z,110
2016-11-23T07:58:19.927Z,115
2016-11-23T07:59:28.835Z,115
2016-11-23T08:00:37.438Z,120
2016-11-23T08:01:46.347Z,125
2016-11-23T08:02:55.388Z,125
2016-11-23T08:04:03.965Z,125
2016-11-23T08:05:12.555Z,130
2016-11-23T08:06:21.820Z,130
2016-11-23T08:07:30.405Z,135
2016-11-23T08:08:39.353Z,135
2016-11-23T08:09:47.951Z,140
2016-11-23T08:10:56.844Z,140
2016-11-23T08:12:05.419Z,145
2016-11-23T08:13:14.013Z,150
2016-11-23T08:14:22.636Z,155
2016-11-23T08:15:31.207Z,160
2016-11-23T08:16:39.789Z,165
2016-11-23T08:17:48.371Z,170
2016-11-23T08:18:57.581Z,175
2016-11-23T08:20:06.560Z,180
2016-11-23T08:21:15.133Z,180
2016-11-23T08:22:23.704Z,185
2016-11-23T08:23:32.911Z,185
2016-11-23T08:24:41.486Z,190
2016-11-23T08:25:50.109Z,195
2016-11-23T08:26:58.684Z,195
2016-11-23T08:28:07.896Z,195
2016-11-23T08:29:16.481Z,195
2016-11-23T08:30:25.054Z,200
2016-11-23T08:31:33.680Z,200
2016-11-23T08:32:42.573Z,205
2016-11-23T08:33:51.466Z,205
2016-11-23T08:35:00.679Z,210
2016-11-23T08:36:09.255Z,210
2016-11-23T08:37:18.494Z,210
2016-11-23T08:38:27.074Z,215
2016-11-23T08:39:35.649Z,215
2016-11-23T08:40:44.221Z,215
2016-11-23T08:41:52.802Z,215
2016-11-23T08:43:01.827Z,215
2016-11-23T08:44:11.041Z,215
2016-11-23T08:45:19.935Z,220
2016-11-23T08:46:28.830Z,220
2016-11-23T08:47:37.725Z,220
2016-11-23T08:48:46.724Z,220
2016-11-23T08:49:55.297Z,220
2016-11-23T08:51:03.872Z,225
2016-11-23T08:52:13.130Z,220
2016-11-23T08:53:21.706Z,220
2016-11-23T08:54:30.419Z,225
2016-11-23T08:55:39.947Z,230
2016-11-23T08:56:48.834Z,230
2016-11-23T08:57:57.415Z,235
2016-11-23T08:59:06.304Z,235
2016-11-23T09:00:14.959Z,235
2016-11-23T09:01:23.532Z,235
2016-11-23T09:02:32.423Z,235
2016-11-23T09:03:41.319Z,240
2016-11-23T09:04:49.894Z,240
2016-11-23T09:05:59.187Z,245
2016-11-23T09:07:08.406Z,250
2016-11-23T09:08:16.984Z,255
2016-11-23T09:09:25.879Z,260
2016-11-23T09:10:35.090Z,265
2016-11-23T09:11:43.717Z,270
2016-11-23T09:12:52.294Z,275
2016-11-23T09:14:00.869Z,275
2016-11-23T09:15:09.762Z,285
2016-11-23T09:16:18.339Z,280
2016-11-23T09:17:27.897Z,280
2016-11-23T09:18:36.794Z,280
2016-11-23T09:19:45.695Z,275
2016-11-23T09:20:54.277Z,275
2016-11-23T09:22:02.851Z,275
2016-11-23T09:23:11.891Z,280
2016-11-23T09:24:20.486Z,280
2016-11-23T09:25:29.064Z,290
2016-11-23T09:26:38.606Z,295
2016-11-23T09:27:47.181Z,300
2016-11-23T09:28:56.191Z,310
2016-11-23T09:30:04.784Z,320
2016-11-23T09:31:13.369Z,330
2016-11-23T09:32:22.582Z,340
2016-11-23T09:33:31.160Z,345
2016-11-23T09:34:40.156Z,350
2016-11-23T09:35:49.383Z,355
2016-11-23T09:36:58.281Z,360
2016-11-23T09:38:06.861Z,365
2016-11-23T09:39:15.755Z,370
2016-11-23T09:40:24.718Z,375
2016-11-23T09:41:33.297Z,385
2016-11-23T09:42:41.872Z,390
2016-11-23T09:43:51.081Z,395
2016-11-23T09:44:59.689Z,400
2016-11-23T09:46:08.934Z,405
2016-11-23T09:47:17.842Z,405
2016-11-23T09:48:26.430Z,410
2016-11-23T09:49:35.014Z,410
2016-11-23T09:50:43.919Z,410
2016-11-23T09:51:52.524Z,410
2016-11-23T09:53:01.940Z,410
2016-11-23T09:54:10.838Z,410
2016-11-23T09:55:19.421Z,410
2016-11-23T09:56:28.549Z,405
2016-11-23T09:57:37.858Z,400
2016-11-23T09:58:47.424Z,400
2016-11-23T09:59:56.299Z,390
2016-11-23T10:01:05.245Z,390
2016-11-23T10:02:14.167Z,385
2016-11-23T10:03:23.735Z,385
2016-11-23T10:04:32.311Z,385
2016-11-23T10:05:40.925Z,390
2016-11-23T10:06:50.157Z,385
2016-11-23T10:07:58.749Z,385
2016-11-23T10:09:07.776Z,385
2016-11-23T10:10:16.679Z,385
2016-11-23T10:11:25.258Z,390
2016-11-23T10:12:34.162Z,395
2016-11-23T10:13:43.062Z,405
2016-11-23T10:14:51.989Z,410
2016-11-23T10:16:00.570Z,415
2016-11-23T10:17:09.146Z,415
2016-11-23T10:18:17.728Z,425
2016-11-23T10:19:26.946Z,425
2016-11-23T10:20:35.873Z,425
2016-11-23T10:21:44.772Z,430
2016-11-23T10:22:53.671Z,430
2016-11-23T10:24:02.250Z,430
2016-11-23T10:25:11.157Z,440
2016-11-23T10:26:20.088Z,440
2016-11-23T10:27:28.667Z,435
2016-11-23T10:28:37.242Z,435
2016-11-23T10:29:45.818Z,435
2016-11-23T10:30:55.346Z,435
2016-11-23T10:32:04.593Z,435
2016-11-23T10:33:13.173Z,440
2016-11-23T10:34:22.722Z,430
2016-11-23T10:35:31.636Z,425
2016-11-23T10:36:40.528Z,415
2016-11-23T10:37:49.158Z,415
2016-11-23T10:38:57.741Z,400
2016-11-23T10:40:06.663Z,400
2016-11-23T10:41:15.567Z,395
2016-11-23T10:42:24.143Z,390
2016-11-23T10:43:32.826Z,380
2016-11-23T10:44:42.079Z,375
2016-11-23T10:45:51.011Z,370
2016-11-23T10:46:59.616Z,370
2016-11-23T10:48:08.513Z,365
2016-11-23T10:49:18.080Z,365
2016-11-23T10:50:27.015Z,355
2016-11-23T10:51:35.621Z,355
2016-11-23T10:52:44.538Z,350
2016-11-23T10:53:53.447Z,345
2016-11-23T10:55:02.714Z,340
2016-11-23T10:56:11.943Z,335
2016-11-23T10:57:20.522Z,325
2016-11-23T10:58:29.104Z,320
2016-11-23T10:59:38.001Z,315
2016-11-23T11:00:46.963Z,315
2016-11-23T11:01:55.862Z,320
2016-11-23T11:03:04.782Z,325
2016-11-23T11:04:13.357Z,325
2016-11-23T11:05:21.935Z,325
2016-11-23T11:06:30.565Z,320
2016-11-23T11:07:39.149Z,315
2016-11-23T11:08:47.727Z,315
2016-11-23T11:09:57.271Z,315
2016-11-23T11:11:05.854Z,300
2016-11-23T11:12:14.485Z,300
2016-11-23T11:13:23.065Z,300
2016-11-23T11:14:31.648Z,310
2016-11-23T11:15:40.859Z,315
2016-11-23T11:16:49.755Z,325
2016-11-23T11:17:59.323Z,335
2016-11-23T11:19:08.861Z,345
2016-11-23T11:20:17.437Z,350
2016-11-23T11:21:26.026Z,360
2016-11-23T11:22:34.608Z,365
2016-11-23T11:23:43.595Z,370
2016-11-23T11:24:52.495Z,375
2016-11-23T11:26:01.396Z,375
2016-11-23T11:27:09.974Z,375
2016-11-23T11:28:18.618Z,375
2016-11-23T11:29:27.551Z,375
2016-11-23T11:30:36.165Z,370
2016-11-23T11:31:44.749Z,365
2016-11-23T11:32:53.329Z,365
2016-11-23T11:34:02.243Z,360
2016-11-23T11:35:11.173Z,360
2016-11-23T11:36:20.694Z,360
2016-11-23T11:37:29.270Z,355
2016-11-23T11:38:38.168Z,345
2016-11-23T11:39:46.746Z,340
2016-11-23T11:40:55.750Z,335
2016-11-23T11:42:04.696Z,335
2016-11-23T11:43:13.925Z,330
2016-11-23T11:44:22.821Z,325
2016-11-23T11:45:31.400Z,325
2016-11-23T11:46:40.034Z,325
2016-11-23T11:47:48.611Z,335
2016-11-23T11:48:57.202Z,340
2016-11-23T11:50:06.419Z,350
2016-11-23T11:51:15.634Z,360
2016-11-23T11:52:24.884Z,375
2016-11-23T11:53:33.784Z,370
2016-11-23T11:54:42.679Z,375
2016-11-23T11:55:51.895Z,380
2016-11-23T11:57:00.488Z,370
2016-11-23T11:58:09.527Z,360
2016-11-23T11:59:18.128Z,360
2016-11-23T12:00:27.350Z,360
2016-11-23T12:01:35.937Z,370
2016-11-23T12:02:45.150Z,365
2016-11-23T12:03:54.181Z,365
2016-11-23T12:05:03.401Z,360
2016-11-23T12:06:11.980Z,360
2016-11-23T12:07:21.192Z,375
2016-11-23T12:08:30.093Z,380
2016-11-23T12:09:39.363Z,385
2016-11-23T12:10:48.273Z,385
2016-11-23T12:11:56.852Z,380
2016-11-23T12:13:05.432Z,370
2016-11-23T12:14:14.020Z,365
2016-11-23T12:15:22.655Z,370
2016-11-23T12:16:31.557Z,360
2016-11-23T12:17:40.448Z,330
2016-11-23T12:18:49.029Z,315
2016-11-23T12:19:57.924Z,315
2016-11-23T12:21:06.869Z,315
2016-11-23T12:22:16.088Z,325
2016-11-23T12:23:24.988Z,330
2016-11-23T12:24:33.889Z,330
2016-11-23T12:25:42.470Z,330
2016-11-23T12:26:51.150Z,335
2016-11-23T12:27:59.728Z,340
2016-11-23T12:29:08.624Z,345
2016-11-23T12:30:17.204Z,340
2016-11-23T12:31:26.109Z,340
2016-11-23T12:32:35.675Z,340
2016-11-23T12:33:44.259Z,345
2016-11-23T12:34:52.839Z,355
2016-11-23T12:36:01.765Z,360
2016-11-23T12:37:10.373Z,365
2016-11-23T12:38:20.009Z,370
2016-11-23T12:39:29.226Z,355
2016-11-23T12:40:37.830Z,355
2016-11-23T12:41:46.408Z,360
2016-11-23T12:42:55.941Z,365
2016-11-23T12:44:04.873Z,360
2016-11-23T12:45:14.119Z,370
2016-11-23T12:46:23.030Z,390
2016-11-23T12:47:31.929Z,400
2016-11-23T12:48:41.148Z,410
2016-11-23T12:49:49.781Z,410
2016-11-23T12:50:58.361Z,405
2016-11-23T12:52:07.255Z,410
2016-11-23T12:53:16.179Z,420
2016-11-23T12:54:24.757Z,415
2016-11-23T12:55:33.763Z,380
2016-11-23T12:56:42.667Z,350
2016-11-23T12:57:51.881Z,340
2016-11-23T12:59:00.775Z,325
2016-11-23T13:00:09.673Z,325
2016-11-23T13:01:18.602Z,320
2016-11-23T13:02:27.849Z,320
2016-11-23T13:03:36.437Z,320
2016-11-23T13:04:45.344Z,320
2016-11-23T13:05:53.930Z,315
2016-11-23T13:07:02.914Z,315
2016-11-23T13:08:11.811Z,320
2016-11-23T13:09:21.028Z,310
2016-11-23T13:10:29.608Z,315
2016-11-23T13:11:38.185Z,310
2016-11-23T13:12:47.136Z,310
2016-11-23T13:13:56.052Z,310
2016-11-23T13:15:04.956Z,315
2016-11-23T13:16:14.203Z,310
2016-11-23T13:17:22.810Z,305
2016-11-23T13:18:31.445Z,305
2016-11-23T13:19:40.024Z,305
2016-11-23T13:20:48.917Z,300
2016-11-23T13:21:58.134Z,290
2016-11-23T13:23:06.716Z,285
2016-11-23T13:24:16.383Z,285
2016-11-23T13:25:25.282Z,280
2016-11-23T13:26:34.503Z,280
2016-11-23T13:27:43.424Z,275
2016-11-23T13:28:52.922Z,275
2016-11-23T13:30:02.138Z,280
2016-11-23T13:31:10.721Z,285
2016-11-23T13:32:19.617Z,300
2016-11-23T13:33:28.195Z,325
2016-11-23T13:34:37.739Z,345
2016-11-23T13:35:46.416Z,350
2016-11-23T13:36:55.027Z,345
2016-11-23T13:38:03.927Z,345
2016-11-23T13:39:12.823Z,335
2016-11-23T13:40:21.724Z,315
2016-11-23T13:41:30.975Z,295
2016-11-23T13:42:39.564Z,285
2016-11-23T13:43:48.467Z,265
2016-11-23T13:44:57.386Z,260
2016-11-23T13:46:05.967Z,265
2016-11-23T13:47:15.221Z,255
2016-11-23T13:48:24.433Z,240
2016-11-23T13:49:33.973Z,235
2016-11-23T13:50:42.872Z,235
2016-11-23T13:51:51.458Z,225
2016-11-23T13:53:00.409Z,220
2016-11-23T13:54:09.759Z,215
2016-11-23T13:55:18.980Z,210
2016-11-23T13:56:27.880Z,205
2016-11-23T13:57:36.500Z,200
2016-11-23T13:58:45.747Z,195
2016-11-23T13:59:54.335Z,195
2016-11-23T14:01:03.228Z,195
2016-11-23T14:02:11.818Z,190
2016-11-23T14:03:20.397Z,190
2016-11-23T14:04:29.034Z,190
2016-11-23T14:05:37.612Z,190
2016-11-23T14:06:46.190Z,190
2016-11-23T14:07:55.119Z,195
2016-11-23T14:09:04.019Z,190
2016-11-23T14:10:13.043Z,195
2016-11-23T14:11:21.935Z,195
2016-11-23T14:12:30.515Z,195
2016-11-23T14:13:39.417Z,190
2016-11-23T14:14:48.320Z,185
2016-11-23T14:15:57.910Z,180
2016-11-23T14:17:07.131Z,170
2016-11-23T14:18:16.026Z,160
2016-11-23T14:19:24.603Z,160
2016-11-23T14:20:33.494Z,150
2016-11-23T14:21:42.810Z,140
2016-11-23T14:22:51.396Z,135
2016-11-23T14:23:59.979Z,130
2016-11-23T14:25:08.877Z,130
2016-11-23T14:26:17.773Z,130
2016-11-23T14:27:27.024Z,130
2016-11-23T14:28:35.924Z,135
2016-11-23T14:29:44.822Z,130
2016-11-23T14:30:53.401Z,125
2016-11-23T14:32:02.335Z,125
2016-11-23T14:33:11.263Z,125
2016-11-23T14:34:20.163Z,115
2016-11-23T14:35:28.746Z,110
2016-11-23T14:36:37.320Z,110
2016-11-23T14:37:45.902Z,110
2016-11-23T14:38:55.150Z,105
2016-11-23T14:40:04.048Z,100
2016-11-23T14:41:12.950Z,95
2016-11-23T14:42:21.880Z,95
2016-11-23T14:43:30.777Z,90
2016-11-23T14:44:39.731Z,80
2016-11-23T14:45:48.627Z,75
2016-11-23T14:46:57.526Z,70
2016-11-23T14:48:06.105Z,65
2016-11-23T14:49:15.003Z,65
2016-11-23T14:50:23.933Z,60
2016-11-23T14:51:33.145Z,55
2016-11-23T14:52:42.036Z,55
2016-11-23T14:53:50.932Z,50
2016-11-23T14:54:59.510Z,50
2016-11-23T14:56:08.192Z,50
2016-11-23T14:57:17.088Z,45
2016-11-23T14:58:25.693Z,45
2016-11-23T14:59:34.604Z,45
2016-11-23T15:00:43.183Z,40
2016-11-23T15:01:52.483Z,40
2016-11-23T15:03:01.699Z,40
2016-11-23T15:04:10.599Z,35
2016-11-23T15:05:19.809Z,35
2016-11-23T15:06:28.709Z,35
2016-11-23T15:07:37.645Z,30
2016-11-23T15:08:46.544Z,30
2016-11-23T15:09:55.121Z,25
2016-11-23T15:11:03.700Z,25
2016-11-23T15:12:12.600Z,25
2016-11-23T15:13:22.111Z,20
2016-11-23T15:14:31.007Z,20
2016-11-23T15:15:39.898Z,20
2016-11-23T15:16:48.794Z,15
2016-11-23T15:17:57.396Z,15
2016-11-23T15:19:06.076Z,15
2016-11-23T15:20:15.285Z,15
2016-11-23T15:21:23.863Z,10
2016-11-23T15:22:32.438Z,10
2016-11-23T15:23:41.361Z,10
2016-11-23T15:24:50.302Z,10
2016-11-23T15:25:59.198Z,5
2016-11-23T15:27:08.094Z,5
2016-11-23T15:28:16.670Z,5
2016-11-23T15:29:25.286Z,5
2016-11-23T15:30:34.577Z,5
2016-11-23T15:31:43.471Z,5
2016-11-23T15:32:52.046Z,0
2016-11-23T15:34:01.260Z,0
2016-11-23T15:35:10.470Z,0
2016-11-23T15:36:19.152Z,0
2016-11-23T15:37:28.363Z,0
2016-11-23T15:38:37.262Z,0
2016-11-23T15:39:45.836Z,0
2016-11-23T15:40:54.729Z,0
2016-11-23T15:42:04.023Z,0
2016-11-23T15:43:13.235Z,0
2016-11-23T15:44:22.138Z,0
2016-11-23T15:45:30.712Z,0
2016-11-23T15:46:39.291Z,0
2016-11-23T15:47:47.970Z,0
2016-11-23T15:48:56.545Z,0
2016-11-23T15:50:05.439Z,0
2016-11-23T15:51:14.015Z,0
2016-11-23T15:52:22.594Z,0
2016-11-23T15:53:31.269Z,0
2016-11-23T15:54:39.846Z,0
2016-11-23T15:55:48.420Z,0
2016-11-23T15:56:56.997Z,0
2016-11-23T15:58:06.209Z,0
2016-11-23T15:59:14.840Z,0
2016-11-23T16:00:23.419Z,0
2016-11-23T16:01:31.998Z,0
2016-11-23T16:02:40.568Z,0
2016-11-23T16:03:49.139Z,0
2016-11-23T16:04:58.803Z,0
2016-11-23T16:06:07.377Z,0
2016-11-23T16:07:15.980Z,0
2016-11-23T16:08:24.871Z,0
2016-11-23T16:09:34.400Z,0
2016-11-23T16:10:43.391Z,0
2016-11-23T16:11:52.280Z,0
2016-11-23T16:13:01.177Z,0
2016-11-23T16:14:09.757Z,0
2016-11-23T16:15:18.361Z,0
2016-11-23T16:16:27.606Z,0
2016-11-23T16:17:36.502Z,0
2016-11-23T16:18:45.402Z,0
2016-11-23T16:19:53.980Z,0
2016-11-23T16:21:02.880Z,0
2016-11-23T16:22:11.507Z,0
2016-11-23T16:23:20.401Z,0
2016-11-23T16:24:29.611Z,0